Time;durP1;ratioP1;P1;durP2;ratioP2;P2;SDS_P1;SDS_P2;PMS_P1;PMS_P2;Temp;Humidity;BMP_temperature;BMP_pressure;BME280_temperature;BME280_humidity;BME280_pressure;Samples;Min_cycle;Max_cycle;Signal;HPM_P1;HPM_P2
2022/06/05 00:00:30;;;;;;;2.37;2.37;;;21.50;69.90;;;;;;5103928;27;43986;-68
2022/06/05 00:03:09;;;;;;;2.63;2.63;;;21.50;69.80;;;;;;5087796;27;43910;-69
2022/06/05 00:05:44;;;;;;;2.40;2.40;;;21.50;70.40;;;;;;5087623;27;43833;-69
2022/06/05 00:08:15;;;;;;;2.67;2.67;;;21.50;70.70;;;;;;5087126;27;43935;-69
2022/06/05 00:10:46;;;;;;;2.30;2.30;;;21.70;70.30;;;;;;5088352;27;44569;-69
2022/06/05 00:13:18;;;;;;;2.60;2.60;;;21.90;69.80;;;;;;5087445;27;43864;-68
2022/06/05 00:15:46;;;;;;;2.53;2.53;;;22.10;69.10;;;;;;5087101;28;43922;-69
2022/06/05 00:18:14;;;;;;;2.30;2.30;;;22.20;68.60;;;;;;5086497;28;43713;-69
2022/06/05 00:20:42;;;;;;;2.43;2.43;;;22.40;68.20;;;;;;5086701;27;44120;-69
2022/06/05 00:23:10;;;;;;;2.13;2.13;;;22.50;67.60;;;;;;5090368;28;43920;-69
2022/06/05 00:25:42;;;;;;;2.60;2.60;;;22.70;67.20;;;;;;5071969;28;43969;-68
2022/06/05 00:28:14;;;;;;;2.27;2.27;;;22.80;66.70;;;;;;5090433;27;43837;-69
2022/06/05 00:30:46;;;;;;;2.23;2.23;;;22.90;66.20;;;;;;5090677;27;44043;-69
2022/06/05 00:33:16;;;;;;;2.20;2.20;;;22.80;66.20;;;;;;5090731;27;43360;-69
2022/06/05 00:35:46;;;;;;;2.47;2.47;;;22.70;66.50;;;;;;5090678;27;43926;-68
2022/06/05 00:38:17;;;;;;;2.60;2.60;;;22.50;66.80;;;;;;5090205;27;43901;-69
2022/06/05 00:40:53;;;;;;;2.30;2.30;;;22.40;67.40;;;;;;5090420;27;44010;-69
2022/06/05 00:43:21;;;;;;;2.33;2.33;;;22.20;67.80;;;;;;5090649;27;43386;-69
2022/06/05 00:45:50;;;;;;;2.20;2.20;;;22.00;68.00;;;;;;5090798;27;44081;-69
2022/06/05 00:48:18;;;;;;;2.50;2.50;;;21.90;68.40;;;;;;5089986;27;44293;-68
2022/06/05 00:50:47;;;;;;;2.43;2.43;;;21.80;69.40;;;;;;5071758;28;44580;-68
2022/06/05 00:53:16;;;;;;;2.60;2.60;;;21.70;68.90;;;;;;5090607;27;43933;-69
2022/06/05 00:55:45;;;;;;;2.67;2.63;;;21.70;69.10;;;;;;5090492;27;43986;-69
2022/06/05 00:58:13;;;;;;;2.47;2.37;;;21.60;70.00;;;;;;5095444;27;43877;-68
2022/06/05 01:00:43;;;;;;;2.40;2.40;;;21.60;69.50;;;;;;5110066;27;44244;-69
2022/06/05 01:03:15;;;;;;;2.40;2.40;;;21.60;69.60;;;;;;5109686;27;44062;-68
2022/06/05 01:05:43;;;;;;;2.30;2.30;;;21.50;69.60;;;;;;5091369;27;43975;-70
2022/06/05 01:08:12;;;;;;;2.57;2.40;;;21.50;69.80;;;;;;5109661;27;43889;-68
2022/06/05 01:10:43;;;;;;;2.40;2.40;;;21.50;69.80;;;;;;5109543;27;43409;-69
2022/06/05 01:13:17;;;;;;;2.30;2.30;;;21.50;70.50;;;;;;5089848;28;43868;-68
2022/06/05 01:15:51;;;;;;;2.60;2.60;;;21.50;69.80;;;;;;5090561;27;43957;-69
2022/06/05 01:18:23;;;;;;;2.60;2.60;;;21.50;69.80;;;;;;5089627;27;45047;-69
2022/06/05 01:20:57;;;;;;;2.67;2.67;;;21.50;69.90;;;;;;5089764;27;43470;-69
2022/06/05 03:58:05;;;;;;;2.10;2.10;;;21.60;69.90;;;;;;5043414;27;45314;-68
2022/06/05 04:00:33;;;;;;;2.10;2.10;;;21.60;69.90;;;;;;5087172;27;44043;-68
2022/06/05 04:03:01;;;;;;;2.23;2.23;;;21.60;69.90;;;;;;5087787;27;43992;-70
2022/06/05 04:05:32;;;;;;;2.37;2.37;;;21.50;69.80;;;;;;5088103;27;43365;-69
2022/06/05 04:08:00;;;;;;;2.10;2.10;;;21.50;69.80;;;;;;5087393;27;44097;-69
2022/06/05 04:10:28;;;;;;;2.20;2.20;;;21.50;70.40;;;;;;5068851;28;44996;-69
2022/06/05 04:12:59;;;;;;;2.40;2.40;;;21.70;70.50;;;;;;5087313;27;43903;-69
2022/06/05 04:15:28;;;;;;;2.10;2.10;;;21.80;70.10;;;;;;5107496;27;43364;-68
2022/06/05 04:17:56;;;;;;;2.27;2.27;;;22.00;69.50;;;;;;5087040;27;44191;-69
2022/06/05 04:20:24;;;;;;;2.10;2.10;;;22.10;68.90;;;;;;5078745;28;45156;-69
2022/06/05 04:22:53;;;;;;;2.30;2.30;;;22.30;68.40;;;;;;5087049;27;43893;-68
2022/06/05 04:25:26;;;;;;;2.20;2.20;;;22.50;68.00;;;;;;5087770;27;43975;-68
2022/06/05 04:27:54;;;;;;;1.97;1.97;;;22.70;67.50;;;;;;5068136;27;46100;-68
2022/06/05 04:30:22;;;;;;;2.20;2.20;;;22.70;67.00;;;;;;5086978;27;43988;-68
2022/06/05 04:32:51;;;;;;;2.00;2.00;;;22.90;66.70;;;;;;5093491;27;44035;-69
2022/06/05 04:35:20;;;;;;;2.30;2.30;;;23.00;66.20;;;;;;5107179;27;43443;-68
2022/06/05 04:37:48;;;;;;;2.13;2.13;;;23.00;66.20;;;;;;5106356;27;43926;-68
2022/06/05 04:40:16;;;;;;;2.40;2.40;;;22.90;66.40;;;;;;5092458;27;43960;-68
2022/06/05 04:42:45;;;;;;;2.20;2.20;;;22.70;66.60;;;;;;5101572;27;43816;-68
2022/06/05 04:45:13;;;;;;;2.20;2.20;;;22.50;67.10;;;;;;5092872;27;44005;-68
2022/06/05 04:47:42;;;;;;;2.30;2.30;;;22.30;67.50;;;;;;5086805;27;44010;-69
2022/06/05 04:50:11;;;;;;;2.23;2.23;;;22.20;67.90;;;;;;5087160;27;43943;-68
2022/06/05 04:52:39;;;;;;;2.13;2.13;;;22.00;68.10;;;;;;5086966;27;43852;-68
2022/06/05 04:55:08;;;;;;;2.20;2.20;;;22.00;68.60;;;;;;5087286;27;44101;-69
2022/06/05 04:57:37;;;;;;;2.10;2.10;;;21.90;68.80;;;;;;5068125;27;45241;-68
2022/06/05 05:00:08;;;;;;;2.10;2.10;;;21.80;69.00;;;;;;5086899;27;43935;-69
2022/06/05 05:02:36;;;;;;;2.30;2.20;;;21.70;69.10;;;;;;5075116;27;43945;-68
2022/06/05 05:05:05;;;;;;;2.10;2.10;;;21.70;69.30;;;;;;5102721;27;43902;-68
2022/06/05 05:07:35;;;;;;;2.20;2.20;;;21.70;69.50;;;;;;5098570;27;43951;-68
2022/06/05 05:10:05;;;;;;;2.00;2.00;;;21.70;69.60;;;;;;5097012;27;44035;-69
2022/06/05 05:12:33;;;;;;;2.03;2.03;;;21.60;69.60;;;;;;5090479;27;43907;-68
2022/06/05 05:15:01;;;;;;;2.20;2.20;;;21.60;69.70;;;;;;5107273;27;43901;-68
2022/06/05 05:17:29;;;;;;;2.10;2.10;;;21.60;69.80;;;;;;5110195;27;45079;-69
2022/06/05 05:19:58;;;;;;;2.20;2.20;;;21.60;69.90;;;;;;5109820;27;44021;-69
2022/06/05 05:22:26;;;;;;;2.20;2.20;;;21.60;69.90;;;;;;5109824;27;43968;-69
2022/06/05 05:24:56;;;;;;;2.10;2.10;;;21.60;69.90;;;;;;5110211;27;44003;-69
2022/06/05 05:27:26;;;;;;;2.30;2.30;;;21.50;69.80;;;;;;5109415;27;44811;-68
2022/06/05 05:29:54;;;;;;;2.17;2.17;;;21.50;70.50;;;;;;5109481;27;43977;-68
2022/06/05 05:32:24;;;;;;;2.30;2.30;;;21.60;70.50;;;;;;5109656;27;43926;-68
2022/06/05 05:34:52;;;;;;;2.10;2.10;;;21.60;70.30;;;;;;5110179;27;44250;-69
2022/06/05 05:37:20;;;;;;;2.07;2.07;;;21.80;70.10;;;;;;5095966;27;43884;-68
2022/06/05 05:42:35;;;;;;;2.00;2.00;;;22.10;69.00;;;;;;5089571;28;43746;-68
2022/06/05 05:45:05;;;;;;;1.90;1.90;;;22.40;68.40;;;;;;5089943;28;43486;-68
2022/06/05 05:47:33;;;;;;;2.10;2.10;;;22.50;67.90;;;;;;5089369;27;43930;-69
2022/06/05 05:50:02;;;;;;;2.00;2.00;;;22.60;67.30;;;;;;5102997;27;43434;-69
2022/06/05 05:52:30;;;;;;;2.10;2.10;;;22.80;67.00;;;;;;5109628;27;43425;-68
2022/06/05 05:54:58;;;;;;;2.30;2.30;;;22.90;66.60;;;;;;5109954;27;43751;-68
2022/06/05 05:57:26;;;;;;;2.00;2.00;;;23.00;66.20;;;;;;5108994;27;43608;-68
2022/06/05 05:59:56;;;;;;;2.20;2.20;;;23.00;66.00;;;;;;5090449;27;44814;-69
2022/06/05 06:02:25;;;;;;;2.07;2.07;;;22.90;66.20;;;;;;5108861;27;43805;-69
2022/06/05 06:04:55;;;;;;;1.90;1.90;;;22.70;66.60;;;;;;5109448;27;43928;-69
2022/06/05 06:07:23;;;;;;;2.03;2.03;;;22.60;67.00;;;;;;5109096;27;43933;-70
2022/06/05 06:09:51;;;;;;;2.10;2.10;;;22.40;67.50;;;;;;5107843;27;43796;-68
2022/06/05 06:12:23;;;;;;;2.10;2.10;;;22.20;67.80;;;;;;5104512;27;43359;-69
2022/06/05 06:14:51;;;;;;;2.10;2.10;;;22.10;68.20;;;;;;5090776;27;44267;-69
2022/06/05 06:17:20;;;;;;;2.17;2.17;;;22.00;68.60;;;;;;5107308;27;44014;-68
2022/06/05 06:19:48;;;;;;;2.00;2.00;;;21.90;68.90;;;;;;5087681;27;43991;-68
2022/06/05 06:22:17;;;;;;;1.97;1.97;;;21.80;69.10;;;;;;5070674;27;43956;-69
2022/06/05 06:24:45;;;;;;;2.00;2.00;;;21.70;69.20;;;;;;5089342;27;43964;-68
2022/06/05 06:27:13;;;;;;;2.17;2.17;;;21.70;69.40;;;;;;5089002;27;43948;-68
2022/06/05 06:29:41;;;;;;;2.00;2.00;;;21.60;69.40;;;;;;5088990;27;43881;-69
2022/06/05 06:32:09;;;;;;;2.00;2.00;;;21.60;69.60;;;;;;5088978;27;44009;-68
2022/06/05 06:34:38;;;;;;;2.17;2.17;;;21.60;69.70;;;;;;5089415;27;43537;-68
2022/06/05 06:37:06;;;;;;;2.03;2.03;;;21.60;69.80;;;;;;5088790;27;43867;-69
2022/06/05 06:39:34;;;;;;;2.10;2.10;;;21.60;69.80;;;;;;5070492;27;45026;-68
2022/06/05 06:42:05;;;;;;;1.87;1.87;;;21.60;69.90;;;;;;5088766;27;43832;-68
2022/06/05 06:44:33;;;;;;;2.10;2.10;;;21.60;69.90;;;;;;5091907;27;44173;-69
2022/06/05 06:47:01;;;;;;;2.20;2.20;;;21.60;69.90;;;;;;5108559;27;43856;-68
2022/06/05 06:49:30;;;;;;;2.03;2.03;;;21.60;69.90;;;;;;5092488;27;43973;-70
2022/06/05 06:52:00;;;;;;;2.10;2.10;;;21.50;69.80;;;;;;5088947;27;43345;-69
2022/06/05 06:54:32;;;;;;;1.80;1.80;;;21.60;70.30;;;;;;5105160;27;44000;-68
2022/06/05 06:57:00;;;;;;;2.00;2.00;;;21.60;70.40;;;;;;5089116;27;47105;-69
2022/06/05 06:59:28;;;;;;;1.90;1.90;;;21.70;70.10;;;;;;5108238;27;44003;-68
2022/06/05 07:01:56;;;;;;;1.90;1.90;;;21.90;69.70;;;;;;5104314;27;43991;-69
2022/06/05 07:04:24;;;;;;;2.00;2.00;;;22.10;69.10;;;;;;5092473;27;43977;-70
2022/06/05 07:06:52;;;;;;;2.00;2.00;;;22.20;68.70;;;;;;5104502;27;44006;-68
2022/06/05 07:09:22;;;;;;;1.80;1.80;;;22.40;68.20;;;;;;5098971;27;43928;-69
2022/06/05 07:11:52;;;;;;;1.90;1.90;;;22.50;67.60;;;;;;5108336;27;43899;-69
2022/06/05 07:14:21;;;;;;;1.90;1.90;;;22.70;67.20;;;;;;5108372;27;43971;-69
2022/06/05 07:16:49;;;;;;;1.80;1.80;;;22.80;66.90;;;;;;5107645;27;45055;-69
2022/06/05 07:19:21;;;;;;;1.90;1.90;;;22.90;66.50;;;;;;5103588;27;43386;-69
2022/06/05 07:21:49;;;;;;;1.90;1.90;;;22.90;66.30;;;;;;5088512;27;43417;-69
2022/06/05 07:24:18;;;;;;;1.90;1.90;;;22.80;66.50;;;;;;5075303;27;43607;-69
2022/06/05 07:26:48;;;;;;;2.10;2.10;;;22.70;66.90;;;;;;5107740;27;44033;-68
2022/06/05 07:29:16;;;;;;;1.90;1.90;;;22.50;67.40;;;;;;5088736;27;43949;-68
2022/06/05 07:31:46;;;;;;;1.80;1.80;;;22.30;67.70;;;;;;5087948;27;43880;-69
2022/06/05 07:34:14;;;;;;;2.20;2.20;;;22.20;68.00;;;;;;5069983;28;44258;-68
2022/06/05 07:36:42;;;;;;;1.70;1.70;;;22.00;68.30;;;;;;5100684;27;44011;-68
2022/06/05 07:39:10;;;;;;;1.90;1.90;;;21.90;68.70;;;;;;5101897;27;43975;-68
2022/06/05 07:41:38;;;;;;;1.80;1.80;;;21.90;69.00;;;;;;5087991;27;43853;-70
2022/06/05 07:44:08;;;;;;;2.00;2.00;;;21.80;69.10;;;;;;5088251;27;43352;-69
2022/06/05 07:46:36;;;;;;;2.00;2.00;;;21.80;70.10;;;;;;5087825;27;44004;-69
2022/06/05 07:49:05;;;;;;;1.97;1.97;;;21.70;69.40;;;;;;5081915;27;45126;-69
2022/06/05 07:54:30;;;;;;;1.90;1.90;;;21.60;69.70;;;;;;5087996;27;43331;-68
2022/06/05 07:56:59;;;;;;;2.07;2.07;;;21.60;69.90;;;;;;5087542;27;44941;-69
2022/06/05 07:59:33;;;;;;;1.80;1.80;;;21.60;69.90;;;;;;5087860;27;44006;-69
2022/06/05 08:02:03;;;;;;;1.80;1.80;;;21.60;69.90;;;;;;5088007;27;43946;-68
2022/06/05 08:04:34;;;;;;;1.90;1.90;;;21.60;69.90;;;;;;5088507;27;44379;-69
2022/06/05 08:07:03;;;;;;;1.80;1.80;;;21.60;69.90;;;;;;5087775;27;44011;-69
2022/06/05 08:09:32;;;;;;;1.97;1.97;;;21.50;69.90;;;;;;5087790;27;43917;-68
2022/06/05 08:12:00;;;;;;;1.80;1.80;;;21.50;69.90;;;;;;5087719;27;43993;-68
2022/06/05 08:14:30;;;;;;;1.60;1.60;;;21.50;70.20;;;;;;5107272;27;44106;-69
2022/06/05 08:16:58;;;;;;;1.67;1.67;;;21.60;70.70;;;;;;5107341;27;44627;-69
2022/06/05 08:19:26;;;;;;;1.90;1.90;;;21.70;70.30;;;;;;5088531;27;45137;-68
2022/06/05 08:21:54;;;;;;;1.90;1.90;;;21.90;69.90;;;;;;5088543;27;43891;-69
2022/06/05 08:24:22;;;;;;;1.90;1.90;;;22.00;69.30;;;;;;5107514;27;43331;-69
2022/06/05 08:26:51;;;;;;;1.77;1.77;;;22.20;68.80;;;;;;5106597;27;44004;-69
2022/06/05 08:29:19;;;;;;;1.90;1.90;;;22.40;68.40;;;;;;5107128;27;44023;-69
2022/06/05 08:31:48;;;;;;;1.60;1.60;;;22.50;67.90;;;;;;5106919;27;43995;-68
2022/06/05 08:34:16;;;;;;;1.70;1.70;;;22.70;67.50;;;;;;5107021;27;43591;-70
2022/06/05 08:36:44;;;;;;;1.93;1.90;;;22.80;67.00;;;;;;5106935;27;43947;-68
2022/06/05 08:42:04;;;;;;;1.80;1.80;;;23.00;66.40;;;;;;5107361;27;43372;-69
2022/06/05 08:44:37;;;;;;;1.87;1.87;;;22.90;66.10;;;;;;5110799;27;43831;-69
2022/06/05 08:47:08;;;;;;;2.13;2.13;;;22.80;66.50;;;;;;5091292;27;45316;-69
2022/06/05 08:49:42;;;;;;;1.87;1.87;;;22.70;66.90;;;;;;5091395;27;45222;-69
2022/06/05 08:52:19;;;;;;;1.73;1.73;;;22.50;67.40;;;;;;5098490;27;43936;-70
2022/06/05 08:54:51;;;;;;;1.70;1.70;;;22.30;67.70;;;;;;5091184;27;43980;-69
2022/06/05 08:57:21;;;;;;;1.70;1.70;;;22.10;68.10;;;;;;5090189;27;44058;-69
2022/06/05 08:59:52;;;;;;;1.90;1.80;;;22.00;68.50;;;;;;5097152;27;44018;-68
2022/06/05 09:02:25;;;;;;;1.63;1.63;;;21.90;69.00;;;;;;5090735;27;43394;-69
2022/06/05 09:04:58;;;;;;;1.87;1.87;;;21.90;69.20;;;;;;5091055;27;43393;-69
2022/06/05 09:07:29;;;;;;;1.90;1.83;;;21.80;69.30;;;;;;5090249;27;44841;-69
2022/06/05 09:09:59;;;;;;;1.93;1.83;;;21.70;69.40;;;;;;5099253;27;43954;-68
2022/06/05 09:12:35;;;;;;;1.97;1.90;;;21.70;69.60;;;;;;5109828;27;43370;-68
2022/06/05 09:15:07;;;;;;;1.77;1.70;;;21.60;69.60;;;;;;5110306;27;43872;-69
2022/06/05 09:17:36;;;;;;;1.87;1.87;;;21.70;69.90;;;;;;5086906;28;45638;-69
2022/06/05 09:20:06;;;;;;;2.03;2.00;;;21.60;69.90;;;;;;5071599;28;45924;-68
2022/06/05 09:22:37;;;;;;;2.30;2.10;;;21.60;69.90;;;;;;5071732;28;43913;-68
2022/06/05 09:25:39;;;;;;;1.80;1.80;;;21.60;69.90;;;;;;5078470;28;43920;-69
2022/06/05 09:28:35;;;;;;;1.60;1.60;;;21.60;69.90;;;;;;5093152;27;43646;-69
2022/06/05 09:31:25;;;;;;;1.97;1.90;;;21.60;69.90;;;;;;5090050;27;44150;-69
2022/06/05 09:33:55;;;;;;;1.77;1.70;;;21.60;69.90;;;;;;5109857;27;43924;-69
2022/06/05 09:36:24;;;;;;;2.17;2.10;;;21.60;70.00;;;;;;5087738;28;43885;-69
2022/06/05 09:38:55;;;;;;;1.70;1.70;;;21.60;70.30;;;;;;5088393;27;46195;-69
2022/06/05 09:41:32;;;;;;;2.33;1.93;;;21.60;70.60;;;;;;5098802;27;44422;-68
2022/06/05 09:44:08;;;;;;;2.07;2.00;;;21.80;70.40;;;;;;5095555;27;43908;-69
2022/06/05 09:46:43;;;;;;;1.80;1.80;;;22.00;70.10;;;;;;5109912;27;44022;-69
2022/06/05 09:49:14;;;;;;;1.80;1.80;;;22.10;69.30;;;;;;5096123;27;43622;-69
2022/06/05 09:51:45;;;;;;;1.90;1.90;;;22.20;68.70;;;;;;5109124;27;43450;-69
2022/06/05 09:54:17;;;;;;;1.77;1.63;;;22.40;68.30;;;;;;5108115;27;43914;-69
2022/06/05 09:59:44;;;;;;;2.20;1.97;;;22.70;67.30;;;;;;5050792;27;44349;-70
2022/06/05 10:02:15;;;;;;;1.80;1.80;;;22.90;67.00;;;;;;5089203;28;43808;-69
2022/06/05 10:04:44;;;;;;;2.10;1.80;;;22.90;66.60;;;;;;5089365;27;44038;-68
2022/06/05 10:07:34;;;;;;;2.03;1.93;;;23.00;66.30;;;;;;5089509;28;43431;-69
2022/06/05 10:10:04;;;;;;;1.73;1.73;;;22.90;66.40;;;;;;5089194;28;43943;-68
2022/06/05 10:12:34;;;;;;;1.80;1.80;;;22.80;66.80;;;;;;5070869;28;44093;-68
2022/06/05 10:15:03;;;;;;;2.23;1.90;;;22.60;67.20;;;;;;5089327;28;43413;-69
2022/06/05 10:17:45;;;;;;;1.87;1.87;;;22.50;67.80;;;;;;5089547;28;43353;-70
2022/06/05 10:20:34;;;;;;;2.03;2.03;;;22.30;68.10;;;;;;5070842;28;46144;-68
2022/06/05 10:23:20;;;;;;;2.00;2.00;;;22.10;68.50;;;;;;5089439;27;43948;-68
2022/06/05 10:25:52;;;;;;;1.83;1.83;;;22.10;68.90;;;;;;5089549;27;44040;-69
2022/06/05 10:28:21;;;;;;;2.10;2.10;;;22.00;69.20;;;;;;5089522;27;43967;-69
2022/06/05 10:30:56;;;;;;;1.80;1.80;;;21.90;69.40;;;;;;5088540;27;44965;-69
2022/06/05 10:33:28;;;;;;;1.70;1.70;;;21.80;69.50;;;;;;5070419;28;46013;-69
2022/06/05 10:36:00;;;;;;;2.10;1.97;;;21.80;69.80;;;;;;5089081;27;44028;-70
2022/06/05 10:38:33;;;;;;;1.80;1.80;;;21.80;70.00;;;;;;5089137;28;43915;-69
2022/06/05 10:41:04;;;;;;;1.90;1.90;;;21.70;70.70;;;;;;5070286;28;46090;-69
2022/06/05 10:43:32;;;;;;;1.87;1.87;;;21.70;70.00;;;;;;5088576;28;43328;-69
2022/06/05 10:46:02;;;;;;;1.83;1.83;;;21.70;70.20;;;;;;5088475;28;43895;-69
2022/06/05 10:48:42;;;;;;;2.10;2.00;;;21.70;70.30;;;;;;5088690;28;44033;-69
2022/06/05 10:51:23;;;;;;;2.53;2.00;;;21.70;70.40;;;;;;5088214;28;43932;-69
2022/06/05 10:53:54;;;;;;;2.20;2.10;;;21.70;70.40;;;;;;5088294;28;43940;-69
2022/06/05 10:56:30;;;;;;;2.40;2.20;;;21.70;70.30;;;;;;5088438;28;43991;-69
2022/06/05 10:59:07;;;;;;;1.90;1.90;;;21.70;70.50;;;;;;5089405;27;43895;-69
2022/06/05 11:02:01;;;;;;;1.73;1.73;;;21.60;70.80;;;;;;5088274;27;43960;-69
2022/06/05 11:04:38;;;;;;;1.97;1.90;;;21.80;71.10;;;;;;5088829;27;44038;-68
2022/06/05 11:07:17;;;;;;;2.00;1.90;;;21.90;70.50;;;;;;5095301;27;43950;-68
2022/06/05 11:09:47;;;;;;;1.80;1.80;;;22.10;70.00;;;;;;5085081;27;43805;-69
2022/06/05 11:15:10;;;;;;;1.90;1.90;;;22.40;69.00;;;;;;5099454;27;43419;-68
2022/06/05 11:17:44;;;;;;;2.60;2.07;;;22.50;68.50;;;;;;5096196;27;43351;-68
2022/06/05 11:20:14;;;;;;;2.80;1.73;;;22.70;68.10;;;;;;5070363;28;44294;-68
2022/06/05 11:22:47;;;;;;;1.80;1.70;;;22.80;67.70;;;;;;5088057;27;44049;-68
2022/06/05 11:25:25;;;;;;;1.90;1.80;;;22.90;67.30;;;;;;5088472;27;43364;-69
2022/06/05 11:28:23;;;;;;;1.73;1.73;;;23.00;66.90;;;;;;5069863;27;43952;-68
2022/06/05 11:31:00;;;;;;;2.00;1.90;;;22.90;67.00;;;;;;5057766;28;43643;-68
2022/06/05 11:33:29;;;;;;;1.63;1.63;;;22.80;67.40;;;;;;5082804;27;44965;-69
2022/06/05 11:36:08;;;;;;;1.60;1.50;;;22.60;67.70;;;;;;5107520;27;44080;-69
2022/06/05 11:38:43;;;;;;;1.73;1.73;;;22.40;68.20;;;;;;5092711;27;43925;-69
2022/06/05 11:41:18;;;;;;;1.90;1.70;;;22.30;68.50;;;;;;5085706;27;43986;-68
2022/06/05 11:43:46;;;;;;;1.97;1.90;;;22.10;68.80;;;;;;5107488;27;43981;-68
2022/06/05 11:46:35;;;;;;;1.80;1.70;;;22.00;69.10;;;;;;5107459;27;43813;-69
2022/06/05 11:49:06;;;;;;;1.70;1.70;;;22.00;69.50;;;;;;5100930;27;44019;-69
2022/06/05 11:51:37;;;;;;;1.80;1.70;;;21.90;69.70;;;;;;5095155;27;44055;-68
2022/06/05 11:54:12;;;;;;;1.73;1.73;;;21.80;69.90;;;;;;5087964;27;45508;-68
2022/06/05 11:56:48;;;;;;;2.13;2.03;;;21.80;70.10;;;;;;5101310;27;44075;-68
2022/06/05 11:59:24;;;;;;;1.60;1.60;;;21.80;70.10;;;;;;5090650;27;43857;-68
2022/06/05 12:01:55;;;;;;;1.67;1.67;;;21.70;70.20;;;;;;5108041;27;44215;-69
2022/06/05 12:04:28;;;;;;;1.60;1.60;;;21.70;70.30;;;;;;5107521;27;44025;-69
2022/06/05 12:06:57;;;;;;;1.70;1.70;;;21.70;70.40;;;;;;5107557;27;44037;-69
2022/06/05 12:09:28;;;;;;;1.80;1.70;;;21.70;70.40;;;;;;5088808;27;44026;-68
2022/06/05 12:11:59;;;;;;;1.70;1.70;;;21.70;70.40;;;;;;5107865;27;44215;-68
2022/06/05 12:14:29;;;;;;;1.70;1.70;;;21.70;70.50;;;;;;5088739;27;46314;-68
2022/06/05 12:17:04;;;;;;;1.73;1.73;;;21.70;70.50;;;;;;5106339;27;44312;-69
2022/06/05 12:19:40;;;;;;;1.67;1.67;;;21.70;70.60;;;;;;5107525;27;43324;-68
2022/06/05 12:22:12;;;;;;;1.40;1.40;;;21.70;71.10;;;;;;5107754;27;44006;-69
2022/06/05 12:24:45;;;;;;;1.63;1.63;;;21.80;70.80;;;;;;5088155;27;45561;-69
2022/06/05 12:27:15;;;;;;;1.40;1.40;;;22.00;70.30;;;;;;5097533;27;43904;-68
2022/06/05 12:29:46;;;;;;;1.60;1.60;;;22.10;69.80;;;;;;5087421;27;43400;-69
2022/06/05 12:32:20;;;;;;;1.70;1.70;;;22.30;69.20;;;;;;5087499;27;43970;-68
2022/06/05 12:34:51;;;;;;;1.60;1.60;;;22.50;68.80;;;;;;5087182;27;43867;-69
2022/06/05 12:37:28;;;;;;;1.40;1.40;;;22.60;68.30;;;;;;5099441;27;43350;-68
2022/06/05 12:39:57;;;;;;;1.47;1.47;;;22.70;67.80;;;;;;5107125;27;44039;-69
2022/06/05 12:42:35;;;;;;;1.50;1.50;;;22.80;67.40;;;;;;5107303;27;44041;-69
2022/06/05 12:45:16;;;;;;;1.50;1.50;;;23.00;67.20;;;;;;5086513;28;44818;-68
2022/06/05 12:47:54;;;;;;;1.40;1.40;;;23.00;66.60;;;;;;5086243;28;43379;-68
2022/06/05 12:50:32;;;;;;;1.40;1.40;;;23.00;66.60;;;;;;5087280;28;43935;-68
2022/06/05 12:53:01;;;;;;;1.60;1.60;;;22.90;66.90;;;;;;5086972;28;43996;-69
2022/06/05 12:55:38;;;;;;;1.63;1.60;;;22.80;67.50;;;;;;5087057;27;43915;-69
2022/06/05 12:58:12;;;;;;;2.20;2.00;;;22.60;67.90;;;;;;5068372;27;44309;-69
2022/06/05 13:00:46;;;;;;;4.33;2.30;;;22.40;68.20;;;;;;5087348;27;43311;-68
2022/06/05 13:03:31;;;;;;;2.50;2.30;;;22.20;68.70;;;;;;5095880;27;43976;-69
2022/06/05 13:06:01;;;;;;;6.13;2.50;;;22.10;69.10;;;;;;5106859;27;45055;-69
2022/06/05 13:08:33;;;;;;;5.60;2.40;;;22.00;69.40;;;;;;5106756;27;43892;-68
2022/06/05 13:11:06;;;;;;;5.33;2.80;;;22.00;69.70;;;;;;5106975;27;43531;-68
2022/06/05 13:13:40;;;;;;;2.80;2.40;;;21.90;69.90;;;;;;5106924;27;43964;-70
2022/06/05 13:16:15;;;;;;;2.80;2.50;;;21.90;70.20;;;;;;5086713;27;43943;-69
2022/06/05 13:19:15;;;;;;;2.97;2.50;;;21.80;70.10;;;;;;5086557;27;43812;-69
2022/06/05 13:21:47;;;;;;;4.40;2.57;;;21.80;70.10;;;;;;5092096;27;44028;-68
2022/06/05 13:24:18;;;;;;;3.73;2.30;;;21.80;70.20;;;;;;5101043;27;43990;-69
2022/06/05 13:26:53;;;;;;;2.70;2.50;;;21.80;70.40;;;;;;5086378;27;44041;-68
2022/06/05 13:29:36;;;;;;;2.67;2.23;;;21.80;70.40;;;;;;5088794;27;44006;-70
2022/06/05 13:32:08;;;;;;;2.50;2.40;;;21.80;70.40;;;;;;5089642;27;44048;-69
2022/06/05 13:34:58;;;;;;;2.60;2.40;;;21.80;70.40;;;;;;5090415;27;43968;-69
2022/06/05 13:37:28;;;;;;;2.73;2.33;;;21.80;70.40;;;;;;5071550;28;46586;-69
2022/06/05 13:39:59;;;;;;;2.57;2.30;;;21.70;70.40;;;;;;5096104;27;43825;-69
2022/06/05 13:42:32;;;;;;;3.67;2.10;;;21.70;70.40;;;;;;5081641;27;44004;-69
2022/06/05 13:45:00;;;;;;;3.23;2.20;;;21.70;70.50;;;;;;5104319;27;43920;-69
2022/06/05 13:47:37;;;;;;;3.03;2.23;;;21.80;71.10;;;;;;5109433;27;43931;-68
2022/06/05 13:50:27;;;;;;;2.57;2.30;;;21.90;70.80;;;;;;5109526;27;43975;-68
2022/06/05 13:53:02;;;;;;;2.30;2.07;;;22.10;70.40;;;;;;5109574;27;44438;-69
2022/06/05 13:55:34;;;;;;;2.73;1.90;;;22.20;69.70;;;;;;5110064;27;43994;-68
2022/06/05 13:58:12;;;;;;;2.33;2.23;;;22.40;69.90;;;;;;5089286;28;43899;-70
2022/06/05 14:00:48;;;;;;;2.20;2.00;;;22.50;68.70;;;;;;5071191;27;44680;-68
2022/06/05 14:03:18;;;;;;;3.63;2.20;;;22.70;68.50;;;;;;5098262;27;44052;-68
2022/06/05 14:05:55;;;;;;;2.07;1.97;;;22.80;67.90;;;;;;5109543;27;44147;-69
2022/06/05 14:08:27;;;;;;;2.20;2.07;;;22.90;67.40;;;;;;5109075;27;44033;-68
2022/06/05 14:10:57;;;;;;;2.20;2.10;;;23.00;67.10;;;;;;5090528;27;45207;-69
2022/06/05 14:13:27;;;;;;;1.77;1.63;;;23.00;67.00;;;;;;5091202;27;43756;-68
2022/06/05 14:15:56;;;;;;;2.10;1.90;;;22.90;67.30;;;;;;5089799;27;43900;-69
2022/06/05 14:18:37;;;;;;;2.33;2.17;;;22.70;67.60;;;;;;5089005;27;43848;-68
2022/06/05 14:21:06;;;;;;;1.87;1.77;;;22.50;68.10;;;;;;5070691;27;44349;-68
2022/06/05 14:23:35;;;;;;;2.10;1.90;;;22.40;68.40;;;;;;5089087;27;43917;-69
2022/06/05 14:26:06;;;;;;;2.00;1.90;;;22.20;68.70;;;;;;5103511;27;43975;-68
2022/06/05 14:28:37;;;;;;;1.90;1.80;;;22.10;69.10;;;;;;5108730;27;43794;-68
2022/06/05 14:31:10;;;;;;;1.70;1.60;;;22.10;69.50;;;;;;5108779;27;43779;-68
2022/06/05 14:33:41;;;;;;;1.50;1.40;;;22.00;69.60;;;;;;5093244;27;44087;-68
2022/06/05 14:36:10;;;;;;;2.13;2.03;;;21.90;69.80;;;;;;5089471;27;43955;-69
2022/06/05 14:38:41;;;;;;;1.90;1.80;;;21.90;70.00;;;;;;5088842;27;44030;-68
2022/06/05 14:41:15;;;;;;;1.67;1.60;;;21.80;70.10;;;;;;5088202;27;43465;-68
2022/06/05 14:43:48;;;;;;;1.90;1.80;;;21.80;70.10;;;;;;5070434;28;43987;-69
2022/06/05 14:46:25;;;;;;;1.80;1.70;;;21.80;70.20;;;;;;5089431;27;43870;-69
2022/06/05 14:48:56;;;;;;;1.60;1.60;;;21.80;70.40;;;;;;5088452;27;44940;-69
2022/06/05 14:51:27;;;;;;;1.67;1.60;;;21.80;70.40;;;;;;5094927;27;44025;-68
2022/06/05 14:53:57;;;;;;;1.70;1.60;;;21.80;70.40;;;;;;5088666;27;43936;-69
2022/06/05 14:59:27;;;;;;;1.60;1.60;;;21.80;70.40;;;;;;5108208;27;43995;-68
2022/06/05 15:01:56;;;;;;;1.57;1.57;;;21.70;70.90;;;;;;5071981;28;45125;-69
2022/06/05 15:04:30;;;;;;;1.77;1.77;;;21.80;70.90;;;;;;5069985;28;43373;-69
2022/06/05 15:07:04;;;;;;;1.23;1.23;;;21.90;70.60;;;;;;5089168;27;43931;-68
2022/06/05 15:09:35;;;;;;;1.83;1.60;;;22.10;70.20;;;;;;5070353;28;45943;-68
2022/06/05 15:12:06;;;;;;;1.27;1.27;;;22.20;69.60;;;;;;5088531;27;43859;-69
2022/06/05 15:14:41;;;;;;;1.40;1.40;;;22.40;69.10;;;;;;5088394;27;43805;-68
2022/06/05 15:17:16;;;;;;;1.50;1.50;;;22.50;68.60;;;;;;5070258;27;43831;-71
2022/06/05 15:19:45;;;;;;;1.37;1.37;;;22.70;68.20;;;;;;5088167;27;43914;-68
2022/06/05 15:22:27;;;;;;;1.60;1.60;;;22.80;67.70;;;;;;5088247;27;44019;-69
2022/06/05 15:24:59;;;;;;;1.30;1.30;;;22.90;67.40;;;;;;5106816;27;44132;-68
2022/06/05 15:27:36;;;;;;;1.40;1.40;;;23.00;67.10;;;;;;5077049;28;44121;-68
2022/06/05 15:30:09;;;;;;;1.23;1.23;;;23.10;66.70;;;;;;5069592;28;45424;-69
2022/06/05 15:32:47;;;;;;;1.50;1.50;;;23.10;66.70;;;;;;5102575;27;43930;-69
2022/06/05 15:35:19;;;;;;;1.40;1.40;;;23.00;66.90;;;;;;5107928;27;43884;-68
2022/06/05 15:38:16;;;;;;;1.30;1.30;;;22.80;67.30;;;;;;5108203;27;43926;-70
2022/06/05 15:40:49;;;;;;;1.63;1.47;;;22.60;67.80;;;;;;5102731;27;44661;-68
2022/06/05 15:43:36;;;;;;;1.40;1.30;;;22.40;68.20;;;;;;5107378;27;44063;-68
2022/06/05 15:46:10;;;;;;;1.57;1.33;;;22.30;68.80;;;;;;5107868;27;43343;-67
2022/06/05 15:48:46;;;;;;;1.40;1.40;;;22.20;69.20;;;;;;5089172;27;44090;-69
2022/06/05 15:51:21;;;;;;;1.40;1.40;;;22.00;69.30;;;;;;5107547;27;43966;-68
2022/06/05 15:54:04;;;;;;;1.20;1.20;;;22.00;69.70;;;;;;5107251;27;43930;-69
2022/06/05 15:56:44;;;;;;;1.30;1.30;;;21.90;69.90;;;;;;5087901;27;43299;-68
2022/06/05 15:59:21;;;;;;;1.10;1.10;;;21.90;70.20;;;;;;5088153;27;44027;-68
2022/06/05 16:01:54;;;;;;;1.40;1.40;;;21.80;70.10;;;;;;5087731;27;44942;-69
2022/06/05 16:04:23;;;;;;;1.20;1.20;;;21.80;70.30;;;;;;5099106;27;43497;-68